sensor_id;sensor_type;location;lat;lon;timestamp;P1;durP1;ratioP1;P2;durP2;ratioP2
72621;SDS011;60665;53.506;9.582;2024-01-16T00:00:04;7.03;;;2.90;;
72621;SDS011;60665;53.506;9.582;2024-01-16T00:03:28;5.70;;;2.38;;
72621;SDS011;60665;53.506;9.582;2024-01-16T00:06:54;8.30;;;3.13;;
72621;SDS011;60665;53.506;9.582;2024-01-16T00:10:18;5.82;;;2.63;;
72621;SDS011;60665;53.506;9.582;2024-01-16T00:13:42;5.35;;;2.60;;
72621;SDS011;60665;53.506;9.582;2024-01-16T00:17:06;6.28;;;2.33;;
72621;SDS011;60665;53.506;9.582;2024-01-16T00:20:30;5.30;;;2.90;;
72621;SDS011;60665;53.506;9.582;2024-01-16T00:23:54;5.68;;;2.75;;
72621;SDS011;60665;53.506;9.582;2024-01-16T00:27:18;6.53;;;2.42;;
72621;SDS011;60665;53.506;9.582;2024-01-16T00:30:44;8.30;;;3.15;;
72621;SDS011;60665;53.506;9.582;2024-01-16T00:34:08;5.47;;;2.55;;
72621;SDS011;60665;53.506;9.582;2024-01-16T00:37:32;5.80;;;2.80;;
72621;SDS011;60665;53.506;9.582;2024-01-16T00:40:59;5.25;;;2.92;;
72621;SDS011;60665;53.506;9.582;2024-01-16T00:47:47;5.88;;;2.35;;
72621;SDS011;60665;53.506;9.582;2024-01-16T00:54:35;4.78;;;2.20;;
72621;SDS011;60665;53.506;9.582;2024-01-16T00:57:59;7.38;;;2.47;;
72621;SDS011;60665;53.506;9.582;2024-01-16T01:01:23;7.13;;;2.67;;
72621;SDS011;60665;53.506;9.582;2024-01-16T01:04:47;7.07;;;2.28;;
72621;SDS011;60665;53.506;9.582;2024-01-16T01:08:11;4.80;;;2.40;;
72621;SDS011;60665;53.506;9.582;2024-01-16T01:11:38;6.43;;;2.42;;
72621;SDS011;60665;53.506;9.582;2024-01-16T01:15:02;5.30;;;2.20;;
72621;SDS011;60665;53.506;9.582;2024-01-16T01:18:26;6.10;;;2.42;;
72621;SDS011;60665;53.506;9.582;2024-01-16T01:21:50;6.97;;;2.60;;
72621;SDS011;60665;53.506;9.582;2024-01-16T01:25:14;4.07;;;2.08;;
72621;SDS011;60665;53.506;9.582;2024-01-16T01:28:43;6.32;;;2.83;;
72621;SDS011;60665;53.506;9.582;2024-01-16T01:35:30;6.28;;;2.45;;
72621;SDS011;60665;53.506;9.582;2024-01-16T01:38:54;5.10;;;2.38;;
72621;SDS011;60665;53.506;9.582;2024-01-16T01:45:45;4.55;;;2.35;;
72621;SDS011;60665;53.506;9.582;2024-01-16T01:49:11;4.65;;;2.47;;
72621;SDS011;60665;53.506;9.582;2024-01-16T01:52:36;6.15;;;2.83;;
72621;SDS011;60665;53.506;9.582;2024-01-16T01:56:03;5.03;;;2.60;;
72621;SDS011;60665;53.506;9.582;2024-01-16T01:59:27;7.00;;;2.95;;
72621;SDS011;60665;53.506;9.582;2024-01-16T02:06:15;7.40;;;2.63;;
72621;SDS011;60665;53.506;9.582;2024-01-16T02:09:40;6.38;;;3.38;;
72621;SDS011;60665;53.506;9.582;2024-01-16T02:13:04;5.80;;;2.72;;
72621;SDS011;60665;53.506;9.582;2024-01-16T02:16:34;10.15;;;3.58;;
72621;SDS011;60665;53.506;9.582;2024-01-16T02:19:58;6.50;;;3.20;;
72621;SDS011;60665;53.506;9.582;2024-01-16T02:23:28;8.63;;;3.00;;
72621;SDS011;60665;53.506;9.582;2024-01-16T02:26:53;7.97;;;2.78;;
72621;SDS011;60665;53.506;9.582;2024-01-16T02:30:17;6.93;;;3.10;;
72621;SDS011;60665;53.506;9.582;2024-01-16T02:33:43;10.95;;;3.65;;
72621;SDS011;60665;53.506;9.582;2024-01-16T02:40:30;10.75;;;3.47;;
72621;SDS011;60665;53.506;9.582;2024-01-16T02:43:54;6.10;;;3.13;;
72621;SDS011;60665;53.506;9.582;2024-01-16T02:47:18;6.80;;;3.00;;
72621;SDS011;60665;53.506;9.582;2024-01-16T02:50:42;7.22;;;3.58;;
72621;SDS011;60665;53.506;9.582;2024-01-16T02:54:07;6.50;;;3.28;;
72621;SDS011;60665;53.506;9.582;2024-01-16T02:57:31;9.98;;;3.38;;
72621;SDS011;60665;53.506;9.582;2024-01-16T03:00:58;10.45;;;4.00;;
72621;SDS011;60665;53.506;9.582;2024-01-16T03:04:22;7.93;;;3.30;;
72621;SDS011;60665;53.506;9.582;2024-01-16T03:07:46;7.72;;;3.63;;
72621;SDS011;60665;53.506;9.582;2024-01-16T03:11:09;6.32;;;3.10;;
72621;SDS011;60665;53.506;9.582;2024-01-16T03:14:33;6.10;;;2.92;;
72621;SDS011;60665;53.506;9.582;2024-01-16T03:18:00;5.75;;;2.80;;
72621;SDS011;60665;53.506;9.582;2024-01-16T03:21:24;10.43;;;3.22;;
72621;SDS011;60665;53.506;9.582;2024-01-16T03:24:49;10.32;;;3.83;;
72621;SDS011;60665;53.506;9.582;2024-01-16T03:28:13;6.90;;;3.17;;
72621;SDS011;60665;53.506;9.582;2024-01-16T03:35:01;6.45;;;2.88;;
72621;SDS011;60665;53.506;9.582;2024-01-16T03:38:25;8.00;;;2.40;;
72621;SDS011;60665;53.506;9.582;2024-01-16T03:41:49;10.15;;;3.17;;
72621;SDS011;60665;53.506;9.582;2024-01-16T03:45:13;4.80;;;1.88;;
72621;SDS011;60665;53.506;9.582;2024-01-16T03:48:37;3.83;;;1.80;;
72621;SDS011;60665;53.506;9.582;2024-01-16T03:55:25;4.35;;;1.75;;
72621;SDS011;60665;53.506;9.582;2024-01-16T03:58:49;4.07;;;1.80;;
72621;SDS011;60665;53.506;9.582;2024-01-16T04:02:13;6.53;;;1.83;;
72621;SDS011;60665;53.506;9.582;2024-01-16T04:05:38;4.95;;;1.90;;
72621;SDS011;60665;53.506;9.582;2024-01-16T04:12:26;3.60;;;1.55;;
72621;SDS011;60665;53.506;9.582;2024-01-16T04:15:50;4.22;;;1.80;;
72621;SDS011;60665;53.506;9.582;2024-01-16T04:19:14;5.07;;;2.00;;
72621;SDS011;60665;53.506;9.582;2024-01-16T04:22:38;4.05;;;1.50;;
72621;SDS011;60665;53.506;9.582;2024-01-16T04:29:26;4.50;;;1.60;;
72621;SDS011;60665;53.506;9.582;2024-01-16T04:32:51;5.30;;;1.73;;
72621;SDS011;60665;53.506;9.582;2024-01-16T04:36:14;3.45;;;1.38;;
72621;SDS011;60665;53.506;9.582;2024-01-16T04:39:38;2.88;;;1.10;;
72621;SDS011;60665;53.506;9.582;2024-01-16T04:43:02;3.70;;;1.25;;
72621;SDS011;60665;53.506;9.582;2024-01-16T04:46:27;3.47;;;1.23;;
72621;SDS011;60665;53.506;9.582;2024-01-16T04:49:51;3.30;;;1.10;;
72621;SDS011;60665;53.506;9.582;2024-01-16T04:53:15;4.18;;;1.05;;
72621;SDS011;60665;53.506;9.582;2024-01-16T05:00:03;2.05;;;0.80;;
72621;SDS011;60665;53.506;9.582;2024-01-16T05:03:27;2.13;;;0.80;;
72621;SDS011;60665;53.506;9.582;2024-01-16T05:06:51;1.55;;;0.57;;
72621;SDS011;60665;53.506;9.582;2024-01-16T05:10:16;1.88;;;0.70;;
72621;SDS011;60665;53.506;9.582;2024-01-16T05:13:40;1.20;;;0.45;;
72621;SDS011;60665;53.506;9.582;2024-01-16T05:17:04;1.42;;;0.57;;
72621;SDS011;60665;53.506;9.582;2024-01-16T05:20:28;2.78;;;0.60;;
72621;SDS011;60665;53.506;9.582;2024-01-16T05:23:52;1.90;;;0.70;;
72621;SDS011;60665;53.506;9.582;2024-01-16T05:27:16;2.30;;;0.80;;
72621;SDS011;60665;53.506;9.582;2024-01-16T05:30:40;2.45;;;0.82;;
72621;SDS011;60665;53.506;9.582;2024-01-16T05:34:06;1.10;;;0.50;;
72621;SDS011;60665;53.506;9.582;2024-01-16T05:40:54;3.47;;;0.65;;
72621;SDS011;60665;53.506;9.582;2024-01-16T05:44:18;2.90;;;1.13;;
72621;SDS011;60665;53.506;9.582;2024-01-16T05:47:42;3.67;;;0.60;;
72621;SDS011;60665;53.506;9.582;2024-01-16T05:51:06;5.38;;;0.82;;
72621;SDS011;60665;53.506;9.582;2024-01-16T05:57:57;4.45;;;0.80;;
72621;SDS011;60665;53.506;9.582;2024-01-16T06:04:44;3.15;;;0.80;;
72621;SDS011;60665;53.506;9.582;2024-01-16T06:08:08;2.17;;;0.77;;
72621;SDS011;60665;53.506;9.582;2024-01-16T06:11:32;4.45;;;1.08;;
72621;SDS011;60665;53.506;9.582;2024-01-16T06:18:20;7.55;;;1.38;;
72621;SDS011;60665;53.506;9.582;2024-01-16T06:21:44;4.93;;;1.25;;
72621;SDS011;60665;53.506;9.582;2024-01-16T06:28:32;6.45;;;1.15;;
72621;SDS011;60665;53.506;9.582;2024-01-16T06:31:56;7.82;;;1.08;;
72621;SDS011;60665;53.506;9.582;2024-01-16T06:35:20;3.75;;;0.68;;
72621;SDS011;60665;53.506;9.582;2024-01-16T06:38:44;4.57;;;1.00;;
72621;SDS011;60665;53.506;9.582;2024-01-16T06:42:08;4.43;;;1.10;;
72621;SDS011;60665;53.506;9.582;2024-01-16T06:45:32;5.28;;;0.90;;
72621;SDS011;60665;53.506;9.582;2024-01-16T06:48:56;4.90;;;1.20;;
72621;SDS011;60665;53.506;9.582;2024-01-16T06:52:20;4.60;;;1.00;;
72621;SDS011;60665;53.506;9.582;2024-01-16T06:55:44;3.88;;;1.13;;
72621;SDS011;60665;53.506;9.582;2024-01-16T06:59:08;2.80;;;0.93;;
72621;SDS011;60665;53.506;9.582;2024-01-16T07:02:32;3.80;;;0.95;;
72621;SDS011;60665;53.506;9.582;2024-01-16T07:05:56;3.47;;;1.10;;
72621;SDS011;60665;53.506;9.582;2024-01-16T07:09:20;5.40;;;0.95;;
72621;SDS011;60665;53.506;9.582;2024-01-16T07:12:47;5.30;;;1.00;;
72621;SDS011;60665;53.506;9.582;2024-01-16T07:16:11;3.00;;;1.08;;
72621;SDS011;60665;53.506;9.582;2024-01-16T07:22:59;3.85;;;1.20;;
72621;SDS011;60665;53.506;9.582;2024-01-16T07:26:23;3.13;;;1.15;;
72621;SDS011;60665;53.506;9.582;2024-01-16T07:29:47;3.72;;;1.27;;
72621;SDS011;60665;53.506;9.582;2024-01-16T07:33:11;3.20;;;1.17;;
72621;SDS011;60665;53.506;9.582;2024-01-16T07:36:35;5.03;;;1.35;;
72621;SDS011;60665;53.506;9.582;2024-01-16T07:43:24;5.68;;;1.30;;
72621;SDS011;60665;53.506;9.582;2024-01-16T07:50:12;4.50;;;1.50;;
72621;SDS011;60665;53.506;9.582;2024-01-16T07:53:36;8.00;;;1.30;;
72621;SDS011;60665;53.506;9.582;2024-01-16T07:57:00;6.13;;;1.55;;
72621;SDS011;60665;53.506;9.582;2024-01-16T08:00:24;4.43;;;1.75;;
72621;SDS011;60665;53.506;9.582;2024-01-16T08:03:48;9.73;;;1.35;;
72621;SDS011;60665;53.506;9.582;2024-01-16T08:07:12;4.80;;;1.90;;
72621;SDS011;60665;53.506;9.582;2024-01-16T08:14:01;7.28;;;1.73;;
72621;SDS011;60665;53.506;9.582;2024-01-16T08:17:25;6.18;;;1.73;;
72621;SDS011;60665;53.506;9.582;2024-01-16T08:20:49;3.83;;;1.70;;
72621;SDS011;60665;53.506;9.582;2024-01-16T08:24:13;9.85;;;2.22;;
72621;SDS011;60665;53.506;9.582;2024-01-16T08:27:37;9.27;;;2.03;;
72621;SDS011;60665;53.506;9.582;2024-01-16T08:31:01;8.45;;;2.03;;
72621;SDS011;60665;53.506;9.582;2024-01-16T08:34:25;5.50;;;1.85;;
72621;SDS011;60665;53.506;9.582;2024-01-16T08:37:49;6.35;;;2.05;;
72621;SDS011;60665;53.506;9.582;2024-01-16T08:41:13;7.05;;;1.83;;
72621;SDS011;60665;53.506;9.582;2024-01-16T08:48:01;6.43;;;1.63;;
72621;SDS011;60665;53.506;9.582;2024-01-16T08:54:49;3.65;;;1.63;;
72621;SDS011;60665;53.506;9.582;2024-01-16T08:58:13;3.30;;;1.42;;
72621;SDS011;60665;53.506;9.582;2024-01-16T09:01:37;6.30;;;1.15;;
72621;SDS011;60665;53.506;9.582;2024-01-16T09:08:25;3.90;;;1.08;;
72621;SDS011;60665;53.506;9.582;2024-01-16T09:11:49;4.50;;;1.27;;
72621;SDS011;60665;53.506;9.582;2024-01-16T09:15:13;13.27;;;1.08;;
72621;SDS011;60665;53.506;9.582;2024-01-16T09:18:37;3.50;;;0.90;;
72621;SDS011;60665;53.506;9.582;2024-01-16T09:22:01;3.90;;;0.88;;
72621;SDS011;60665;53.506;9.582;2024-01-16T09:25:25;4.07;;;0.88;;
72621;SDS011;60665;53.506;9.582;2024-01-16T09:28:49;5.82;;;0.95;;
72621;SDS011;60665;53.506;9.582;2024-01-16T09:32:14;5.22;;;0.63;;
72621;SDS011;60665;53.506;9.582;2024-01-16T09:35:38;2.70;;;0.80;;
72621;SDS011;60665;53.506;9.582;2024-01-16T09:39:03;5.53;;;0.77;;
72621;SDS011;60665;53.506;9.582;2024-01-16T09:42:30;3.22;;;0.90;;
72621;SDS011;60665;53.506;9.582;2024-01-16T09:45:55;2.58;;;0.52;;
72621;SDS011;60665;53.506;9.582;2024-01-16T09:49:20;3.85;;;0.95;;
72621;SDS011;60665;53.506;9.582;2024-01-16T09:52:45;6.53;;;0.90;;
72621;SDS011;60665;53.506;9.582;2024-01-16T09:56:13;3.47;;;0.90;;
72621;SDS011;60665;53.506;9.582;2024-01-16T09:59:37;2.92;;;0.57;;
72621;SDS011;60665;53.506;9.582;2024-01-16T10:03:03;1.88;;;0.70;;
72621;SDS011;60665;53.506;9.582;2024-01-16T10:06:27;2.47;;;0.70;;
72621;SDS011;60665;53.506;9.582;2024-01-16T10:09:55;3.83;;;0.75;;
72621;SDS011;60665;53.506;9.582;2024-01-16T10:13:19;4.53;;;0.85;;
72621;SDS011;60665;53.506;9.582;2024-01-16T10:20:31;2.00;;;0.70;;
72621;SDS011;60665;53.506;9.582;2024-01-16T10:23:57;2.38;;;0.80;;
72621;SDS011;60665;53.506;9.582;2024-01-16T10:27:36;2.17;;;0.82;;
72621;SDS011;60665;53.506;9.582;2024-01-16T10:31:04;5.68;;;1.02;;
72621;SDS011;60665;53.506;9.582;2024-01-16T10:34:28;6.70;;;0.70;;
72621;SDS011;60665;53.506;9.582;2024-01-16T10:41:22;3.08;;;0.82;;
72621;SDS011;60665;53.506;9.582;2024-01-16T10:44:52;6.50;;;0.90;;
72621;SDS011;60665;53.506;9.582;2024-01-16T10:48:18;5.72;;;0.75;;
72621;SDS011;60665;53.506;9.582;2024-01-16T10:55:16;5.78;;;1.00;;
72621;SDS011;60665;53.506;9.582;2024-01-16T10:58:42;2.90;;;0.82;;
72621;SDS011;60665;53.506;9.582;2024-01-16T11:02:27;6.25;;;1.08;;
72621;SDS011;60665;53.506;9.582;2024-01-16T11:06:05;2.28;;;0.85;;
72621;SDS011;60665;53.506;9.582;2024-01-16T11:09:30;3.00;;;0.98;;
72621;SDS011;60665;53.506;9.582;2024-01-16T11:12:55;4.80;;;0.88;;
72621;SDS011;60665;53.506;9.582;2024-01-16T11:16:19;6.15;;;1.20;;
72621;SDS011;60665;53.506;9.582;2024-01-16T11:19:46;5.78;;;0.98;;
72621;SDS011;60665;53.506;9.582;2024-01-16T11:23:11;3.85;;;1.00;;
72621;SDS011;60665;53.506;9.582;2024-01-16T11:26:35;2.83;;;0.90;;
72621;SDS011;60665;53.506;9.582;2024-01-16T11:30:04;4.18;;;1.13;;
72621;SDS011;60665;53.506;9.582;2024-01-16T11:33:48;3.80;;;0.73;;
72621;SDS011;60665;53.506;9.582;2024-01-16T11:37:27;4.68;;;0.85;;
72621;SDS011;60665;53.506;9.582;2024-01-16T11:40:54;3.33;;;0.85;;
72621;SDS011;60665;53.506;9.582;2024-01-16T11:44:46;4.78;;;0.93;;
72621;SDS011;60665;53.506;9.582;2024-01-16T11:48:14;5.00;;;0.88;;
72621;SDS011;60665;53.506;9.582;2024-01-16T11:51:38;3.35;;;0.80;;
72621;SDS011;60665;53.506;9.582;2024-01-16T12:06:10;3.95;;;0.80;;
72621;SDS011;60665;53.506;9.582;2024-01-16T12:09:35;3.83;;;1.20;;
72621;SDS011;60665;53.506;9.582;2024-01-16T12:13:02;3.22;;;1.20;;
72621;SDS011;60665;53.506;9.582;2024-01-16T12:16:36;3.10;;;0.82;;
72621;SDS011;60665;53.506;9.582;2024-01-16T12:20:00;2.15;;;1.00;;
72621;SDS011;60665;53.506;9.582;2024-01-16T12:23:32;4.93;;;0.85;;
72621;SDS011;60665;53.506;9.582;2024-01-16T12:26:59;4.68;;;0.90;;
72621;SDS011;60665;53.506;9.582;2024-01-16T12:30:24;3.22;;;0.88;;
72621;SDS011;60665;53.506;9.582;2024-01-16T12:33:49;3.35;;;1.08;;
72621;SDS011;60665;53.506;9.582;2024-01-16T12:37:14;4.15;;;1.10;;
72621;SDS011;60665;53.506;9.582;2024-01-16T12:40:45;4.22;;;0.85;;
72621;SDS011;60665;53.506;9.582;2024-01-16T12:44:11;3.00;;;1.02;;
72621;SDS011;60665;53.506;9.582;2024-01-16T12:47:35;5.85;;;1.20;;
72621;SDS011;60665;53.506;9.582;2024-01-16T12:54:42;3.25;;;0.90;;
72621;SDS011;60665;53.506;9.582;2024-01-16T12:58:16;4.80;;;1.10;;
72621;SDS011;60665;53.506;9.582;2024-01-16T13:01:40;6.45;;;1.73;;
72621;SDS011;60665;53.506;9.582;2024-01-16T13:05:04;3.35;;;1.05;;
72621;SDS011;60665;53.506;9.582;2024-01-16T13:08:29;6.75;;;1.20;;
72621;SDS011;60665;53.506;9.582;2024-01-16T13:15:17;4.78;;;1.30;;
72621;SDS011;60665;53.506;9.582;2024-01-16T13:18:41;11.57;;;1.52;;
72621;SDS011;60665;53.506;9.582;2024-01-16T13:22:06;3.10;;;1.05;;
72621;SDS011;60665;53.506;9.582;2024-01-16T13:28:54;4.93;;;1.50;;
72621;SDS011;60665;53.506;9.582;2024-01-16T13:32:18;4.63;;;1.90;;
72621;SDS011;60665;53.506;9.582;2024-01-16T13:35:43;10.82;;;2.03;;
72621;SDS011;60665;53.506;9.582;2024-01-16T13:39:08;8.48;;;2.58;;
72621;SDS011;60665;53.506;9.582;2024-01-16T13:42:43;7.50;;;2.50;;
72621;SDS011;60665;53.506;9.582;2024-01-16T13:46:07;9.07;;;1.77;;
72621;SDS011;60665;53.506;9.582;2024-01-16T13:52:56;6.25;;;1.40;;
72621;SDS011;60665;53.506;9.582;2024-01-16T13:56:20;8.90;;;2.28;;
72621;SDS011;60665;53.506;9.582;2024-01-16T14:03:07;6.43;;;2.17;;
72621;SDS011;60665;53.506;9.582;2024-01-16T14:06:31;7.35;;;2.10;;
72621;SDS011;60665;53.506;9.582;2024-01-16T14:13:19;8.48;;;1.58;;
72621;SDS011;60665;53.506;9.582;2024-01-16T14:20:08;5.82;;;1.67;;
72621;SDS011;60665;53.506;9.582;2024-01-16T14:23:32;9.48;;;1.70;;
72621;SDS011;60665;53.506;9.582;2024-01-16T14:26:55;4.82;;;1.80;;
72621;SDS011;60665;53.506;9.582;2024-01-16T14:30:29;6.28;;;1.45;;
72621;SDS011;60665;53.506;9.582;2024-01-16T14:33:53;5.13;;;1.60;;
72621;SDS011;60665;53.506;9.582;2024-01-16T14:37:17;5.93;;;1.40;;
72621;SDS011;60665;53.506;9.582;2024-01-16T14:44:07;5.03;;;1.27;;
72621;SDS011;60665;53.506;9.582;2024-01-16T14:47:32;5.10;;;1.42;;
72621;SDS011;60665;53.506;9.582;2024-01-16T14:54:19;4.32;;;1.60;;
72621;SDS011;60665;53.506;9.582;2024-01-16T14:57:45;4.72;;;1.50;;
72621;SDS011;60665;53.506;9.582;2024-01-16T15:04:41;8.68;;;1.48;;
72621;SDS011;60665;53.506;9.582;2024-01-16T15:08:05;6.63;;;1.90;;
72621;SDS011;60665;53.506;9.582;2024-01-16T15:14:53;7.88;;;1.73;;
72621;SDS011;60665;53.506;9.582;2024-01-16T15:18:19;6.32;;;1.85;;
72621;SDS011;60665;53.506;9.582;2024-01-16T15:21:43;5.10;;;2.03;;
72621;SDS011;60665;53.506;9.582;2024-01-16T15:25:09;6.80;;;2.10;;
72621;SDS011;60665;53.506;9.582;2024-01-16T15:28:33;3.38;;;1.50;;
72621;SDS011;60665;53.506;9.582;2024-01-16T15:35:21;4.57;;;1.40;;
72621;SDS011;60665;53.506;9.582;2024-01-16T15:38:46;4.10;;;1.90;;
72621;SDS011;60665;53.506;9.582;2024-01-16T15:42:11;4.65;;;1.92;;
72621;SDS011;60665;53.506;9.582;2024-01-16T15:45:35;4.95;;;2.30;;
72621;SDS011;60665;53.506;9.582;2024-01-16T15:52:23;6.72;;;2.35;;
72621;SDS011;60665;53.506;9.582;2024-01-16T15:55:46;9.68;;;2.97;;
72621;SDS011;60665;53.506;9.582;2024-01-16T16:02:37;9.13;;;3.05;;
72621;SDS011;60665;53.506;9.582;2024-01-16T16:06:01;6.25;;;3.00;;
72621;SDS011;60665;53.506;9.582;2024-01-16T16:09:25;6.18;;;2.78;;
72621;SDS011;60665;53.506;9.582;2024-01-16T16:12:51;6.60;;;2.72;;
72621;SDS011;60665;53.506;9.582;2024-01-16T16:16:16;6.57;;;2.53;;
72621;SDS011;60665;53.506;9.582;2024-01-16T16:23:04;5.45;;;1.75;;
72621;SDS011;60665;53.506;9.582;2024-01-16T16:26:28;7.35;;;2.63;;
72621;SDS011;60665;53.506;9.582;2024-01-16T16:29:54;6.38;;;2.63;;
72621;SDS011;60665;53.506;9.582;2024-01-16T16:33:18;12.65;;;3.30;;
72621;SDS011;60665;53.506;9.582;2024-01-16T16:36:44;7.97;;;2.38;;
72621;SDS011;60665;53.506;9.582;2024-01-16T16:40:09;5.57;;;2.45;;
72621;SDS011;60665;53.506;9.582;2024-01-16T16:43:33;6.15;;;2.88;;
72621;SDS011;60665;53.506;9.582;2024-01-16T16:46:57;5.15;;;2.40;;
72621;SDS011;60665;53.506;9.582;2024-01-16T16:50:21;7.53;;;2.72;;
72621;SDS011;60665;53.506;9.582;2024-01-16T16:53:46;8.10;;;3.00;;
72621;SDS011;60665;53.506;9.582;2024-01-16T16:57:12;7.40;;;3.10;;
72621;SDS011;60665;53.506;9.582;2024-01-16T17:00:37;6.03;;;2.65;;
72621;SDS011;60665;53.506;9.582;2024-01-16T17:04:03;7.22;;;2.85;;
72621;SDS011;60665;53.506;9.582;2024-01-16T17:07:28;6.20;;;3.10;;
72621;SDS011;60665;53.506;9.582;2024-01-16T17:14:16;8.18;;;3.85;;
72621;SDS011;60665;53.506;9.582;2024-01-16T17:21:05;8.90;;;3.97;;
72621;SDS011;60665;53.506;9.582;2024-01-16T17:24:30;11.27;;;3.85;;
72621;SDS011;60665;53.506;9.582;2024-01-16T17:27:54;10.35;;;4.18;;
72621;SDS011;60665;53.506;9.582;2024-01-16T17:31:18;9.52;;;5.18;;
72621;SDS011;60665;53.506;9.582;2024-01-16T17:34:43;9.65;;;4.22;;
72621;SDS011;60665;53.506;9.582;2024-01-16T17:38:07;8.10;;;4.15;;
72621;SDS011;60665;53.506;9.582;2024-01-16T17:41:35;9.93;;;4.63;;
72621;SDS011;60665;53.506;9.582;2024-01-16T17:44:59;9.88;;;4.53;;
72621;SDS011;60665;53.506;9.582;2024-01-16T17:48:23;11.93;;;5.10;;
72621;SDS011;60665;53.506;9.582;2024-01-16T17:55:11;13.85;;;4.90;;
72621;SDS011;60665;53.506;9.582;2024-01-16T17:58:37;11.23;;;4.15;;
72621;SDS011;60665;53.506;9.582;2024-01-16T18:02:04;12.82;;;4.82;;
72621;SDS011;60665;53.506;9.582;2024-01-16T18:05:28;9.45;;;5.05;;
72621;SDS011;60665;53.506;9.582;2024-01-16T18:08:52;11.02;;;5.72;;
72621;SDS011;60665;53.506;9.582;2024-01-16T18:12:16;9.65;;;4.78;;
72621;SDS011;60665;53.506;9.582;2024-01-16T18:15:41;15.85;;;5.07;;
72621;SDS011;60665;53.506;9.582;2024-01-16T18:22:32;10.93;;;4.45;;
72621;SDS011;60665;53.506;9.582;2024-01-16T18:25:57;11.40;;;5.65;;
72621;SDS011;60665;53.506;9.582;2024-01-16T18:29:21;12.52;;;5.63;;
72621;SDS011;60665;53.506;9.582;2024-01-16T18:32:48;11.32;;;4.90;;
72621;SDS011;60665;53.506;9.582;2024-01-16T18:36:12;31.92;;;12.43;;
72621;SDS011;60665;53.506;9.582;2024-01-16T18:43:00;13.43;;;7.05;;
72621;SDS011;60665;53.506;9.582;2024-01-16T18:49:49;12.35;;;5.40;;
72621;SDS011;60665;53.506;9.582;2024-01-16T18:53:19;11.00;;;5.40;;
72621;SDS011;60665;53.506;9.582;2024-01-16T18:56:44;8.55;;;4.90;;
72621;SDS011;60665;53.506;9.582;2024-01-16T19:03:32;11.30;;;4.25;;
72621;SDS011;60665;53.506;9.582;2024-01-16T19:06:57;9.68;;;4.85;;
72621;SDS011;60665;53.506;9.582;2024-01-16T19:10:21;8.15;;;4.13;;
72621;SDS011;60665;53.506;9.582;2024-01-16T19:13:45;9.43;;;4.13;;
72621;SDS011;60665;53.506;9.582;2024-01-16T19:17:10;10.77;;;4.68;;
72621;SDS011;60665;53.506;9.582;2024-01-16T19:20:34;6.38;;;4.03;;
72621;SDS011;60665;53.506;9.582;2024-01-16T19:23:58;9.23;;;4.55;;
72621;SDS011;60665;53.506;9.582;2024-01-16T19:27:22;8.13;;;3.92;;
72621;SDS011;60665;53.506;9.582;2024-01-16T19:30:47;10.00;;;4.15;;
72621;SDS011;60665;53.506;9.582;2024-01-16T19:34:11;9.63;;;4.07;;
72621;SDS011;60665;53.506;9.582;2024-01-16T19:37:38;11.93;;;4.65;;
72621;SDS011;60665;53.506;9.582;2024-01-16T19:41:02;8.27;;;3.72;;
72621;SDS011;60665;53.506;9.582;2024-01-16T19:44:27;10.32;;;3.88;;
72621;SDS011;60665;53.506;9.582;2024-01-16T19:47:51;8.68;;;3.67;;
72621;SDS011;60665;53.506;9.582;2024-01-16T19:51:14;8.20;;;3.25;;
72621;SDS011;60665;53.506;9.582;2024-01-16T19:54:39;6.40;;;3.30;;
72621;SDS011;60665;53.506;9.582;2024-01-16T19:58:04;8.68;;;3.55;;
72621;SDS011;60665;53.506;9.582;2024-01-16T20:01:32;8.70;;;3.45;;
72621;SDS011;60665;53.506;9.582;2024-01-16T20:04:55;6.80;;;3.58;;
72621;SDS011;60665;53.506;9.582;2024-01-16T20:11:44;13.52;;;3.95;;
72621;SDS011;60665;53.506;9.582;2024-01-16T20:15:09;9.88;;;4.20;;
72621;SDS011;60665;53.506;9.582;2024-01-16T20:18:34;5.68;;;3.20;;
72621;SDS011;60665;53.506;9.582;2024-01-16T20:21:59;8.48;;;3.65;;
72621;SDS011;60665;53.506;9.582;2024-01-16T20:25:23;7.65;;;3.78;;
72621;SDS011;60665;53.506;9.582;2024-01-16T20:28:47;9.73;;;4.07;;
72621;SDS011;60665;53.506;9.582;2024-01-16T20:35:35;6.25;;;3.42;;
72621;SDS011;60665;53.506;9.582;2024-01-16T20:38:59;6.47;;;3.13;;
72621;SDS011;60665;53.506;9.582;2024-01-16T20:42:23;9.88;;;3.97;;
72621;SDS011;60665;53.506;9.582;2024-01-16T20:45:47;7.97;;;4.30;;
72621;SDS011;60665;53.506;9.582;2024-01-16T20:49:14;6.63;;;3.13;;
72621;SDS011;60665;53.506;9.582;2024-01-16T20:52:38;7.38;;;3.97;;
72621;SDS011;60665;53.506;9.582;2024-01-16T20:56:02;8.95;;;3.60;;
72621;SDS011;60665;53.506;9.582;2024-01-16T20:59:26;13.00;;;4.40;;
72621;SDS011;60665;53.506;9.582;2024-01-16T21:02:50;11.40;;;4.00;;
72621;SDS011;60665;53.506;9.582;2024-01-16T21:06:14;13.70;;;4.20;;
72621;SDS011;60665;53.506;9.582;2024-01-16T21:09:38;8.63;;;3.92;;
72621;SDS011;60665;53.506;9.582;2024-01-16T21:13:03;6.97;;;3.78;;
72621;SDS011;60665;53.506;9.582;2024-01-16T21:16:27;8.65;;;4.35;;
72621;SDS011;60665;53.506;9.582;2024-01-16T21:19:51;7.18;;;3.92;;
72621;SDS011;60665;53.506;9.582;2024-01-16T21:23:14;7.95;;;4.22;;
72621;SDS011;60665;53.506;9.582;2024-01-16T21:26:42;9.77;;;4.15;;
72621;SDS011;60665;53.506;9.582;2024-01-16T21:30:10;9.05;;;4.18;;
72621;SDS011;60665;53.506;9.582;2024-01-16T21:33:35;9.30;;;3.80;;
72621;SDS011;60665;53.506;9.582;2024-01-16T21:36:58;7.25;;;3.67;;
72621;SDS011;60665;53.506;9.582;2024-01-16T21:40:22;9.35;;;4.55;;
72621;SDS011;60665;53.506;9.582;2024-01-16T21:43:46;9.48;;;4.18;;
72621;SDS011;60665;53.506;9.582;2024-01-16T21:47:13;10.18;;;4.22;;
72621;SDS011;60665;53.506;9.582;2024-01-16T21:50:39;8.50;;;4.32;;
72621;SDS011;60665;53.506;9.582;2024-01-16T21:54:04;9.93;;;4.45;;
72621;SDS011;60665;53.506;9.582;2024-01-16T22:00:52;14.15;;;5.13;;
72621;SDS011;60665;53.506;9.582;2024-01-16T22:04:16;10.27;;;4.47;;
72621;SDS011;60665;53.506;9.582;2024-01-16T22:07:40;10.48;;;4.80;;
72621;SDS011;60665;53.506;9.582;2024-01-16T22:11:05;9.48;;;4.13;;
72621;SDS011;60665;53.506;9.582;2024-01-16T22:14:30;11.15;;;4.13;;
72621;SDS011;60665;53.506;9.582;2024-01-16T22:17:54;11.48;;;4.22;;
72621;SDS011;60665;53.506;9.582;2024-01-16T22:21:19;9.73;;;4.13;;
72621;SDS011;60665;53.506;9.582;2024-01-16T22:24:43;8.98;;;4.07;;
72621;SDS011;60665;53.506;9.582;2024-01-16T22:28:07;9.52;;;4.32;;
72621;SDS011;60665;53.506;9.582;2024-01-16T22:31:32;10.68;;;5.05;;
72621;SDS011;60665;53.506;9.582;2024-01-16T22:34:55;12.32;;;4.93;;
72621;SDS011;60665;53.506;9.582;2024-01-16T22:38:19;12.90;;;4.80;;
72621;SDS011;60665;53.506;9.582;2024-01-16T22:41:46;8.25;;;4.40;;
72621;SDS011;60665;53.506;9.582;2024-01-16T22:45:11;10.70;;;4.75;;
72621;SDS011;60665;53.506;9.582;2024-01-16T22:48:35;11.45;;;4.70;;
72621;SDS011;60665;53.506;9.582;2024-01-16T22:52:00;8.65;;;4.38;;
72621;SDS011;60665;53.506;9.582;2024-01-16T22:55:24;10.20;;;4.47;;
72621;SDS011;60665;53.506;9.582;2024-01-16T22:58:49;9.75;;;4.82;;
72621;SDS011;60665;53.506;9.582;2024-01-16T23:02:13;9.07;;;4.07;;
72621;SDS011;60665;53.506;9.582;2024-01-16T23:05:38;11.27;;;5.28;;
72621;SDS011;60665;53.506;9.582;2024-01-16T23:09:02;15.02;;;5.13;;
72621;SDS011;60665;53.506;9.582;2024-01-16T23:12:27;9.88;;;4.82;;
72621;SDS011;60665;53.506;9.582;2024-01-16T23:15:51;9.88;;;4.65;;
72621;SDS011;60665;53.506;9.582;2024-01-16T23:19:16;10.40;;;5.22;;
72621;SDS011;60665;53.506;9.582;2024-01-16T23:22:41;10.02;;;4.97;;
72621;SDS011;60665;53.506;9.582;2024-01-16T23:26:07;10.13;;;4.88;;
72621;SDS011;60665;53.506;9.582;2024-01-16T23:29:33;9.93;;;4.95;;
72621;SDS011;60665;53.506;9.582;2024-01-16T23:32:57;11.57;;;5.53;;
72621;SDS011;60665;53.506;9.582;2024-01-16T23:36:21;13.40;;;4.97;;